sensor_id;sensor_type;location;lat;lon;timestamp;pressure;altitude;pressure_sealevel;temperature;humidity
24230;BME280;12362;50.004;8.006;2023-02-14T00:02:06;102665.09;;;-0.39;100.00
24230;BME280;12362;50.004;8.006;2023-02-14T00:04:32;102659.16;;;-0.38;100.00
24230;BME280;12362;50.004;8.006;2023-02-14T00:06:58;102657.28;;;-0.43;100.00
24230;BME280;12362;50.004;8.006;2023-02-14T00:09:25;102661.56;;;-0.42;100.00
24230;BME280;12362;50.004;8.006;2023-02-14T00:11:51;102655.19;;;-0.28;100.00
24230;BME280;12362;50.004;8.006;2023-02-14T00:14:17;102658.38;;;-0.35;100.00
24230;BME280;12362;50.004;8.006;2023-02-14T00:17:02;102649.63;;;-0.43;100.00
24230;BME280;12362;50.004;8.006;2023-02-14T00:19:28;102645.94;;;-0.51;100.00
24230;BME280;12362;50.004;8.006;2023-02-14T00:21:57;102651.31;;;-0.44;100.00
24230;BME280;12362;50.004;8.006;2023-02-14T00:24:25;102652.34;;;-0.37;100.00
24230;BME280;12362;50.004;8.006;2023-02-14T00:26:51;102654.34;;;-0.29;100.00
24230;BME280;12362;50.004;8.006;2023-02-14T00:29:20;102648.78;;;-0.16;100.00
24230;BME280;12362;50.004;8.006;2023-02-14T00:31:45;102657.94;;;-0.22;100.00
24230;BME280;12362;50.004;8.006;2023-02-14T00:34:12;102654.31;;;-0.30;100.00
24230;BME280;12362;50.004;8.006;2023-02-14T00:36:38;102656.16;;;-0.51;100.00
24230;BME280;12362;50.004;8.006;2023-02-14T00:39:06;102650.31;;;-0.49;100.00
24230;BME280;12362;50.004;8.006;2023-02-14T00:41:32;102657.91;;;-0.50;100.00
24230;BME280;12362;50.004;8.006;2023-02-14T00:43:58;102650.00;;;-0.58;100.00
24230;BME280;12362;50.004;8.006;2023-02-14T00:46:24;102658.00;;;-0.47;100.00
24230;BME280;12362;50.004;8.006;2023-02-14T00:48:50;102662.00;;;-0.55;100.00
24230;BME280;12362;50.004;8.006;2023-02-14T00:51:17;102658.56;;;-0.56;100.00
24230;BME280;12362;50.004;8.006;2023-02-14T00:53:44;102660.00;;;-0.64;100.00
24230;BME280;12362;50.004;8.006;2023-02-14T00:56:11;102656.69;;;-0.61;100.00
24230;BME280;12362;50.004;8.006;2023-02-14T00:58:37;102657.50;;;-0.62;100.00
24230;BME280;12362;50.004;8.006;2023-02-14T01:01:02;102651.69;;;-0.58;100.00
24230;BME280;12362;50.004;8.006;2023-02-14T01:03:28;102651.84;;;-0.54;100.00
24230;BME280;12362;50.004;8.006;2023-02-14T01:05:55;102664.44;;;-0.58;100.00
24230;BME280;12362;50.004;8.006;2023-02-14T01:08:22;102653.31;;;-0.60;100.00
24230;BME280;12362;50.004;8.006;2023-02-14T01:10:48;102657.44;;;-0.65;100.00
24230;BME280;12362;50.004;8.006;2023-02-14T01:13:14;102658.91;;;-0.72;100.00
24230;BME280;12362;50.004;8.006;2023-02-14T01:15:45;102656.19;;;-0.76;100.00
24230;BME280;12362;50.004;8.006;2023-02-14T01:18:11;102653.97;;;-0.67;100.00
24230;BME280;12362;50.004;8.006;2023-02-14T01:20:37;102642.75;;;-0.71;100.00
24230;BME280;12362;50.004;8.006;2023-02-14T01:23:03;102648.38;;;-0.81;100.00
24230;BME280;12362;50.004;8.006;2023-02-14T01:25:29;102647.47;;;-0.83;100.00
24230;BME280;12362;50.004;8.006;2023-02-14T01:27:57;102643.44;;;-0.76;100.00
24230;BME280;12362;50.004;8.006;2023-02-14T01:30:23;102648.53;;;-0.76;100.00
24230;BME280;12362;50.004;8.006;2023-02-14T01:32:49;102653.47;;;-0.81;100.00
24230;BME280;12362;50.004;8.006;2023-02-14T01:35:15;102662.28;;;-0.97;100.00
24230;BME280;12362;50.004;8.006;2023-02-14T01:37:41;102658.66;;;-1.04;100.00
24230;BME280;12362;50.004;8.006;2023-02-14T01:40:08;102654.06;;;-0.89;100.00
24230;BME280;12362;50.004;8.006;2023-02-14T01:42:35;102658.66;;;-1.04;100.00
24230;BME280;12362;50.004;8.006;2023-02-14T01:45:27;102658.81;;;-0.99;100.00
24230;BME280;12362;50.004;8.006;2023-02-14T01:47:54;102659.00;;;-0.93;100.00
24230;BME280;12362;50.004;8.006;2023-02-14T01:50:33;102657.59;;;-0.86;100.00
24230;BME280;12362;50.004;8.006;2023-02-14T01:53:08;102655.03;;;-0.86;100.00
24230;BME280;12362;50.004;8.006;2023-02-14T01:55:39;102654.81;;;-0.92;100.00
24230;BME280;12362;50.004;8.006;2023-02-14T01:58:13;102655.22;;;-1.04;100.00
24230;BME280;12362;50.004;8.006;2023-02-14T02:00:40;102656.50;;;-1.17;100.00
24230;BME280;12362;50.004;8.006;2023-02-14T02:03:23;102666.41;;;-1.24;100.00
24230;BME280;12362;50.004;8.006;2023-02-14T02:05:53;102658.50;;;-1.08;100.00
24230;BME280;12362;50.004;8.006;2023-02-14T02:08:22;102659.69;;;-1.22;100.00
24230;BME280;12362;50.004;8.006;2023-02-14T02:10:48;102661.59;;;-1.17;100.00
24230;BME280;12362;50.004;8.006;2023-02-14T02:13:17;102651.13;;;-1.01;100.00
24230;BME280;12362;50.004;8.006;2023-02-14T02:19:07;102659.50;;;-1.03;100.00
24230;BME280;12362;50.004;8.006;2023-02-14T02:38:54;102644.16;;;-1.05;100.00
24230;BME280;12362;50.004;8.006;2023-02-14T02:47:04;102639.47;;;-1.18;100.00
24230;BME280;12362;50.004;8.006;2023-02-14T02:55:51;102648.38;;;-1.05;100.00
24230;BME280;12362;50.004;8.006;2023-02-14T02:59:09;102650.44;;;-0.95;100.00
24230;BME280;12362;50.004;8.006;2023-02-14T03:02:24;102646.06;;;-0.99;100.00
24230;BME280;12362;50.004;8.006;2023-02-14T03:04:58;102637.84;;;-0.91;100.00
24230;BME280;12362;50.004;8.006;2023-02-14T03:07:31;102640.44;;;-0.90;100.00
24230;BME280;12362;50.004;8.006;2023-02-14T03:10:25;102640.25;;;-0.95;100.00
24230;BME280;12362;50.004;8.006;2023-02-14T03:13:22;102641.50;;;-1.08;100.00
24230;BME280;12362;50.004;8.006;2023-02-14T03:27:01;102635.03;;;-1.23;100.00
24230;BME280;12362;50.004;8.006;2023-02-14T03:35:24;102640.66;;;-1.32;100.00
24230;BME280;12362;50.004;8.006;2023-02-14T03:40:40;102651.50;;;-1.37;100.00
24230;BME280;12362;50.004;8.006;2023-02-14T03:43:13;102648.13;;;-1.38;100.00
24230;BME280;12362;50.004;8.006;2023-02-14T03:45:45;102645.50;;;-1.39;100.00
24230;BME280;12362;50.004;8.006;2023-02-14T03:48:15;102654.94;;;-1.37;100.00
24230;BME280;12362;50.004;8.006;2023-02-14T03:50:58;102660.34;;;-1.28;100.00
24230;BME280;12362;50.004;8.006;2023-02-14T03:53:29;102659.28;;;-1.34;100.00
24230;BME280;12362;50.004;8.006;2023-02-14T03:58:30;102659.59;;;-1.49;100.00
24230;BME280;12362;50.004;8.006;2023-02-14T04:01:03;102659.53;;;-1.50;100.00
24230;BME280;12362;50.004;8.006;2023-02-14T04:03:31;102659.66;;;-1.47;100.00
24230;BME280;12362;50.004;8.006;2023-02-14T04:05:59;102665.78;;;-1.42;100.00
24230;BME280;12362;50.004;8.006;2023-02-14T04:08:28;102660.69;;;-1.42;100.00
24230;BME280;12362;50.004;8.006;2023-02-14T04:10:56;102664.06;;;-1.43;100.00
24230;BME280;12362;50.004;8.006;2023-02-14T04:13:22;102665.94;;;-1.38;100.00
24230;BME280;12362;50.004;8.006;2023-02-14T04:15:47;102659.59;;;-1.25;100.00
24230;BME280;12362;50.004;8.006;2023-02-14T04:18:13;102672.72;;;-1.15;100.00
24230;BME280;12362;50.004;8.006;2023-02-14T04:20:57;102669.53;;;-1.08;100.00
24230;BME280;12362;50.004;8.006;2023-02-14T04:23:22;102668.03;;;-1.03;100.00
24230;BME280;12362;50.004;8.006;2023-02-14T04:25:48;102673.22;;;-1.00;100.00
24230;BME280;12362;50.004;8.006;2023-02-14T04:28:14;102678.81;;;-1.10;100.00
24230;BME280;12362;50.004;8.006;2023-02-14T04:30:39;102679.31;;;-1.20;100.00
24230;BME280;12362;50.004;8.006;2023-02-14T04:33:05;102680.78;;;-1.26;100.00
24230;BME280;12362;50.004;8.006;2023-02-14T04:35:33;102677.25;;;-1.30;100.00
24230;BME280;12362;50.004;8.006;2023-02-14T04:38:00;102674.75;;;-1.28;100.00
24230;BME280;12362;50.004;8.006;2023-02-14T04:40:26;102681.81;;;-1.21;100.00
24230;BME280;12362;50.004;8.006;2023-02-14T04:42:51;102675.03;;;-1.21;100.00
24230;BME280;12362;50.004;8.006;2023-02-14T04:45:17;102680.78;;;-1.26;100.00
24230;BME280;12362;50.004;8.006;2023-02-14T04:47:43;102678.22;;;-1.26;100.00
24230;BME280;12362;50.004;8.006;2023-02-14T04:50:08;102686.97;;;-1.20;100.00
24230;BME280;12362;50.004;8.006;2023-02-14T04:52:34;102683.81;;;-1.13;100.00
24230;BME280;12362;50.004;8.006;2023-02-14T04:55:00;102687.22;;;-1.12;100.00
24230;BME280;12362;50.004;8.006;2023-02-14T04:57:26;102679.69;;;-1.09;100.00
24230;BME280;12362;50.004;8.006;2023-02-14T04:59:52;102685.06;;;-1.02;100.00
24230;BME280;12362;50.004;8.006;2023-02-14T05:02:18;102682.59;;;-0.99;100.00
24230;BME280;12362;50.004;8.006;2023-02-14T05:04:44;102672.25;;;-1.03;100.00
24230;BME280;12362;50.004;8.006;2023-02-14T05:07:10;102680.13;;;-1.21;100.00
24230;BME280;12362;50.004;8.006;2023-02-14T05:09:36;102668.78;;;-1.05;100.00
24230;BME280;12362;50.004;8.006;2023-02-14T05:12:02;102666.56;;;-0.96;100.00
24230;BME280;12362;50.004;8.006;2023-02-14T05:14:27;102665.00;;;-0.92;100.00
24230;BME280;12362;50.004;8.006;2023-02-14T05:16:53;102662.31;;;-0.96;100.00
24230;BME280;12362;50.004;8.006;2023-02-14T05:19:19;102660.53;;;-0.98;100.00
24230;BME280;12362;50.004;8.006;2023-02-14T05:21:44;102656.41;;;-0.95;100.00
24230;BME280;12362;50.004;8.006;2023-02-14T05:24:10;102653.16;;;-0.91;100.00
24230;BME280;12362;50.004;8.006;2023-02-14T05:26:35;102656.63;;;-0.89;100.00
24230;BME280;12362;50.004;8.006;2023-02-14T05:29:01;102653.19;;;-0.90;100.00
24230;BME280;12362;50.004;8.006;2023-02-14T05:31:26;102659.25;;;-0.86;100.00
24230;BME280;12362;50.004;8.006;2023-02-14T05:33:52;102657.72;;;-0.81;100.00
24230;BME280;12362;50.004;8.006;2023-02-14T05:36:18;102655.19;;;-0.81;100.00
24230;BME280;12362;50.004;8.006;2023-02-14T05:38:43;102652.63;;;-0.81;100.00
24230;BME280;12362;50.004;8.006;2023-02-14T05:41:09;102652.56;;;-0.83;100.00
24230;BME280;12362;50.004;8.006;2023-02-14T05:43:35;102659.81;;;-0.94;100.00
24230;BME280;12362;50.004;8.006;2023-02-14T05:46:01;102659.16;;;-0.89;100.00
24230;BME280;12362;50.004;8.006;2023-02-14T05:48:27;102666.09;;;-0.85;100.00
24230;BME280;12362;50.004;8.006;2023-02-14T05:50:56;102655.97;;;-0.84;100.00
24230;BME280;12362;50.004;8.006;2023-02-14T05:53:22;102655.13;;;-0.83;100.00
24230;BME280;12362;50.004;8.006;2023-02-14T05:55:48;102653.56;;;-0.79;100.00
24230;BME280;12362;50.004;8.006;2023-02-14T05:58:13;102660.56;;;-0.72;100.00
24230;BME280;12362;50.004;8.006;2023-02-14T06:00:39;102667.53;;;-0.68;100.00
24230;BME280;12362;50.004;8.006;2023-02-14T06:03:05;102663.56;;;-0.59;100.00
24230;BME280;12362;50.004;8.006;2023-02-14T06:05:31;102663.91;;;-0.48;100.00
24230;BME280;12362;50.004;8.006;2023-02-14T06:07:56;102659.09;;;-0.39;100.00
24230;BME280;12362;50.004;8.006;2023-02-14T06:10:23;102661.84;;;-0.33;100.00
24230;BME280;12362;50.004;8.006;2023-02-14T06:12:50;102658.63;;;-0.28;100.00
24230;BME280;12362;50.004;8.006;2023-02-14T06:15:17;102657.06;;;-0.23;100.00
24230;BME280;12362;50.004;8.006;2023-02-14T06:17:43;102652.97;;;-0.18;100.00
24230;BME280;12362;50.004;8.006;2023-02-14T06:20:09;102652.28;;;-0.12;100.00
24230;BME280;12362;50.004;8.006;2023-02-14T06:22:36;102659.91;;;-0.14;100.00
24230;BME280;12362;50.004;8.006;2023-02-14T06:25:04;102659.22;;;-0.08;100.00
24230;BME280;12362;50.004;8.006;2023-02-14T06:27:31;102661.91;;;-0.04;100.00
24230;BME280;12362;50.004;8.006;2023-02-14T06:29:57;102670.44;;;-0.03;100.00
24230;BME280;12362;50.004;8.006;2023-02-14T06:32:25;102671.44;;;0.01;100.00
24230;BME280;12362;50.004;8.006;2023-02-14T06:34:58;102672.38;;;0.03;100.00
24230;BME280;12362;50.004;8.006;2023-02-14T06:37:28;102677.41;;;0.02;100.00
24230;BME280;12362;50.004;8.006;2023-02-14T06:40:01;102680.19;;;0.09;100.00
24230;BME280;12362;50.004;8.006;2023-02-14T06:42:26;102680.38;;;0.15;100.00
24230;BME280;12362;50.004;8.006;2023-02-14T06:45:03;102676.38;;;0.23;100.00
24230;BME280;12362;50.004;8.006;2023-02-14T06:47:31;102679.97;;;0.30;100.00
24230;BME280;12362;50.004;8.006;2023-02-14T06:50:03;102685.19;;;0.34;100.00
24230;BME280;12362;50.004;8.006;2023-02-14T06:52:40;102692.06;;;0.37;100.00
24230;BME280;12362;50.004;8.006;2023-02-14T06:55:09;102687.84;;;0.37;100.00
24230;BME280;12362;50.004;8.006;2023-02-14T06:57:37;102681.16;;;0.42;100.00
24230;BME280;12362;50.004;8.006;2023-02-14T07:00:05;102684.84;;;0.52;100.00
24230;BME280;12362;50.004;8.006;2023-02-14T07:02:31;102682.44;;;0.56;100.00
24230;BME280;12362;50.004;8.006;2023-02-14T07:05:07;102681.72;;;0.62;100.00
24230;BME280;12362;50.004;8.006;2023-02-14T07:07:52;102681.13;;;0.70;100.00
24230;BME280;12362;50.004;8.006;2023-02-14T07:10:17;102683.72;;;0.72;100.00
24230;BME280;12362;50.004;8.006;2023-02-14T07:12:43;102685.66;;;0.80;100.00
24230;BME280;12362;50.004;8.006;2023-02-14T07:15:10;102680.66;;;0.85;100.00
24230;BME280;12362;50.004;8.006;2023-02-14T07:17:36;102677.50;;;0.93;100.00
24230;BME280;12362;50.004;8.006;2023-02-14T07:20:03;102673.41;;;0.99;100.00
24230;BME280;12362;50.004;8.006;2023-02-14T07:22:33;102676.13;;;1.05;100.00
24230;BME280;12362;50.004;8.006;2023-02-14T07:24:59;102680.44;;;1.06;100.00
24230;BME280;12362;50.004;8.006;2023-02-14T07:27:25;102672.97;;;1.15;100.00
24230;BME280;12362;50.004;8.006;2023-02-14T07:29:51;102673.09;;;1.20;100.00
24230;BME280;12362;50.004;8.006;2023-02-14T07:32:16;102681.63;;;1.20;100.00
24230;BME280;12362;50.004;8.006;2023-02-14T07:34:42;102676.69;;;1.28;100.00
24230;BME280;12362;50.004;8.006;2023-02-14T07:37:08;102680.19;;;1.31;100.00
24230;BME280;12362;50.004;8.006;2023-02-14T07:50:37;102685.88;;;1.52;100.00
24230;BME280;12362;50.004;8.006;2023-02-14T07:53:03;102688.56;;;1.58;100.00
24230;BME280;12362;50.004;8.006;2023-02-14T07:56:10;102693.88;;;1.66;100.00
24230;BME280;12362;50.004;8.006;2023-02-14T07:59:17;102688.81;;;1.69;100.00
24230;BME280;12362;50.004;8.006;2023-02-14T08:02:30;102684.00;;;1.80;100.00
24230;BME280;12362;50.004;8.006;2023-02-14T08:05:22;102682.06;;;1.72;100.00
24230;BME280;12362;50.004;8.006;2023-02-14T08:09:04;102681.31;;;1.76;100.00
24230;BME280;12362;50.004;8.006;2023-02-14T08:11:35;102694.34;;;1.85;100.00
24230;BME280;12362;50.004;8.006;2023-02-14T08:14:20;102688.50;;;1.92;100.00
24230;BME280;12362;50.004;8.006;2023-02-14T08:16:49;102688.47;;;1.89;100.00
24230;BME280;12362;50.004;8.006;2023-02-14T08:19:15;102684.13;;;1.86;100.00
24230;BME280;12362;50.004;8.006;2023-02-14T08:21:46;102682.47;;;1.90;100.00
24230;BME280;12362;50.004;8.006;2023-02-14T08:24:38;102679.16;;;1.92;100.00
24230;BME280;12362;50.004;8.006;2023-02-14T08:27:04;102674.75;;;1.87;100.00
24230;BME280;12362;50.004;8.006;2023-02-14T08:29:35;102684.16;;;1.88;100.00
24230;BME280;12362;50.004;8.006;2023-02-14T08:32:14;102680.91;;;1.95;100.00
24230;BME280;12362;50.004;8.006;2023-02-14T08:34:45;102684.50;;;2.03;100.00
24230;BME280;12362;50.004;8.006;2023-02-14T08:37:11;102686.41;;;2.11;100.00
24230;BME280;12362;50.004;8.006;2023-02-14T08:39:38;102680.06;;;1.94;100.00
24230;BME280;12362;50.004;8.006;2023-02-14T08:42:04;102683.34;;;1.89;100.00
24230;BME280;12362;50.004;8.006;2023-02-14T08:44:30;102683.81;;;2.10;100.00
24230;BME280;12362;50.004;8.006;2023-02-14T08:46:55;102683.72;;;2.07;100.00
24230;BME280;12362;50.004;8.006;2023-02-14T08:49:21;102686.44;;;2.13;100.00
24230;BME280;12362;50.004;8.006;2023-02-14T08:51:47;102694.31;;;2.22;100.00
24230;BME280;12362;50.004;8.006;2023-02-14T08:54:12;102689.09;;;2.17;100.00
24230;BME280;12362;50.004;8.006;2023-02-14T08:56:38;102689.97;;;2.19;100.00
24230;BME280;12362;50.004;8.006;2023-02-14T08:59:05;102690.69;;;2.12;100.00
24230;BME280;12362;50.004;8.006;2023-02-14T09:01:31;102696.72;;;2.14;100.00
24230;BME280;12362;50.004;8.006;2023-02-14T09:04:02;102698.66;;;2.24;100.00
24230;BME280;12362;50.004;8.006;2023-02-14T09:06:28;102690.38;;;2.37;100.00
24230;BME280;12362;50.004;8.006;2023-02-14T09:08:54;102695.75;;;2.48;100.00
24230;BME280;12362;50.004;8.006;2023-02-14T09:11:22;102690.66;;;2.51;100.00
24230;BME280;12362;50.004;8.006;2023-02-14T09:13:50;102689.09;;;2.57;100.00
24230;BME280;12362;50.004;8.006;2023-02-14T09:16:20;102689.66;;;2.43;100.00
24230;BME280;12362;50.004;8.006;2023-02-14T09:18:46;102692.63;;;2.22;100.00
24230;BME280;12362;50.004;8.006;2023-02-14T09:21:15;102696.16;;;2.29;100.00
24230;BME280;12362;50.004;8.006;2023-02-14T09:23:42;102698.81;;;2.33;100.00
24230;BME280;12362;50.004;8.006;2023-02-14T09:26:09;102688.66;;;2.38;100.00
24230;BME280;12362;50.004;8.006;2023-02-14T09:28:35;102692.03;;;2.35;100.00
24230;BME280;12362;50.004;8.006;2023-02-14T09:31:17;102688.66;;;2.38;100.00
24230;BME280;12362;50.004;8.006;2023-02-14T09:33:44;102691.94;;;2.31;100.00
24230;BME280;12362;50.004;8.006;2023-02-14T09:36:29;102686.31;;;2.47;100.00
24230;BME280;12362;50.004;8.006;2023-02-14T09:39:14;102681.22;;;2.50;100.00
24230;BME280;12362;50.004;8.006;2023-02-14T09:44:27;102688.31;;;2.60;100.00
24230;BME280;12362;50.004;8.006;2023-02-14T09:46:58;102684.59;;;2.46;100.00
24230;BME280;12362;50.004;8.006;2023-02-14T09:49:32;102678.81;;;2.57;100.00
24230;BME280;12362;50.004;8.006;2023-02-14T09:52:02;102680.78;;;2.68;100.00
24230;BME280;12362;50.004;8.006;2023-02-14T09:54:29;102680.03;;;2.74;100.00
24230;BME280;12362;50.004;8.006;2023-02-14T09:59:46;102669.88;;;2.80;100.00
24230;BME280;12362;50.004;8.006;2023-02-14T10:02:29;102680.69;;;2.64;100.00
24230;BME280;12362;50.004;8.006;2023-02-14T10:05:17;102668.59;;;3.01;100.00
24230;BME280;12362;50.004;8.006;2023-02-14T10:10:40;102671.97;;;2.99;100.00
24230;BME280;12362;50.004;8.006;2023-02-14T10:13:21;102671.88;;;2.94;100.00
24230;BME280;12362;50.004;8.006;2023-02-14T10:16:00;102664.34;;;3.03;100.00
24230;BME280;12362;50.004;8.006;2023-02-14T10:21:25;102668.44;;;3.41;100.00
24230;BME280;12362;50.004;8.006;2023-02-14T10:24:15;102667.69;;;3.50;100.00
24230;BME280;12362;50.004;8.006;2023-02-14T10:26:42;102660.94;;;3.53;100.00
24230;BME280;12362;50.004;8.006;2023-02-14T10:29:14;102663.44;;;3.50;100.00
24230;BME280;12362;50.004;8.006;2023-02-14T10:31:58;102657.47;;;3.51;100.00
24230;BME280;12362;50.004;8.006;2023-02-14T10:34:32;102652.22;;;3.44;100.00
24230;BME280;12362;50.004;8.006;2023-02-14T10:37:31;102654.91;;;3.53;100.00
24230;BME280;12362;50.004;8.006;2023-02-14T10:47:56;102650.97;;;3.72;100.00
24230;BME280;12362;50.004;8.006;2023-02-14T10:50:51;102644.88;;;3.66;100.00
24230;BME280;12362;50.004;8.006;2023-02-14T10:56:02;102631.88;;;3.56;100.00
24230;BME280;12362;50.004;8.006;2023-02-14T10:58:32;102632.81;;;3.60;100.00
24230;BME280;12362;50.004;8.006;2023-02-14T11:01:09;102627.69;;;3.63;100.00
24230;BME280;12362;50.004;8.006;2023-02-14T11:03:55;102626.09;;;3.70;100.00
24230;BME280;12362;50.004;8.006;2023-02-14T11:06:29;102630.25;;;3.63;100.00
24230;BME280;12362;50.004;8.006;2023-02-14T11:08:55;102615.91;;;3.76;100.00
24230;BME280;12362;50.004;8.006;2023-02-14T11:13:49;102614.03;;;3.64;100.00
24230;BME280;12362;50.004;8.006;2023-02-14T11:21:52;102609.41;;;3.43;100.00
24230;BME280;12362;50.004;8.006;2023-02-14T11:24:34;102606.97;;;3.52;100.00
24230;BME280;12362;50.004;8.006;2023-02-14T11:27:16;102599.34;;;3.56;100.00
24230;BME280;12362;50.004;8.006;2023-02-14T11:29:47;102605.22;;;3.49;100.00
24230;BME280;12362;50.004;8.006;2023-02-14T11:32:27;102599.19;;;3.46;100.00
24230;BME280;12362;50.004;8.006;2023-02-14T11:37:38;102588.94;;;3.47;100.00
24230;BME280;12362;50.004;8.006;2023-02-14T11:40:34;102587.25;;;3.51;100.00
24230;BME280;12362;50.004;8.006;2023-02-14T11:43:18;102586.53;;;3.58;100.00
24230;BME280;12362;50.004;8.006;2023-02-14T11:45:47;102582.34;;;3.65;100.00
24230;BME280;12362;50.004;8.006;2023-02-14T11:48:20;102586.72;;;3.71;100.00
24230;BME280;12362;50.004;8.006;2023-02-14T11:51:03;102581.69;;;3.80;100.00
24230;BME280;12362;50.004;8.006;2023-02-14T11:53:51;102575.00;;;3.91;100.00
24230;BME280;12362;50.004;8.006;2023-02-14T11:56:20;102573.31;;;3.91;100.00
24230;BME280;12362;50.004;8.006;2023-02-14T11:58:58;102569.06;;;3.95;100.00
24230;BME280;12362;50.004;8.006;2023-02-14T12:01:38;102569.78;;;3.85;100.00
24230;BME280;12362;50.004;8.006;2023-02-14T12:04:10;102558.56;;;3.77;100.00
24230;BME280;12362;50.004;8.006;2023-02-14T12:06:38;102560.19;;;3.72;100.00
24230;BME280;12362;50.004;8.006;2023-02-14T12:09:26;102563.75;;;3.81;100.00
24230;BME280;12362;50.004;8.006;2023-02-14T12:11:57;102560.13;;;3.67;100.00
24230;BME280;12362;50.004;8.006;2023-02-14T12:14:31;102560.19;;;3.70;100.00
24230;BME280;12362;50.004;8.006;2023-02-14T12:17:20;102550.09;;;3.85;100.00
24230;BME280;12362;50.004;8.006;2023-02-14T12:22:32;102540.75;;;3.92;100.00
24230;BME280;12362;50.004;8.006;2023-02-14T12:25:17;102541.53;;;3.86;100.00
24230;BME280;12362;50.004;8.006;2023-02-14T12:28:03;102537.28;;;3.88;100.00
24230;BME280;12362;50.004;8.006;2023-02-14T12:30:33;102538.91;;;3.79;100.00
24230;BME280;12362;50.004;8.006;2023-02-14T12:32:59;102532.16;;;3.88;100.00
24230;BME280;12362;50.004;8.006;2023-02-14T12:38:06;102532.56;;;3.53;100.00
24230;BME280;12362;50.004;8.006;2023-02-14T12:43:54;102530.06;;;3.59;100.00
24230;BME280;12362;50.004;8.006;2023-02-14T12:57:22;102512.44;;;3.86;100.00
24230;BME280;12362;50.004;8.006;2023-02-14T13:13:54;102482.44;;;3.83;100.00
24230;BME280;12362;50.004;8.006;2023-02-14T13:22:38;102486.00;;;3.94;100.00
24230;BME280;12362;50.004;8.006;2023-02-14T13:27:45;102480.94;;;3.34;100.00
24230;BME280;12362;50.004;8.006;2023-02-14T13:30:31;102480.09;;;3.36;100.00
24230;BME280;12362;50.004;8.006;2023-02-14T13:33:01;102470.94;;;3.55;100.00
24230;BME280;12362;50.004;8.006;2023-02-14T13:35:30;102469.97;;;3.47;100.00
24230;BME280;12362;50.004;8.006;2023-02-14T13:38:03;102470.88;;;3.52;100.00
24230;BME280;12362;50.004;8.006;2023-02-14T13:40:31;102467.38;;;3.44;100.00
24230;BME280;12362;50.004;8.006;2023-02-14T13:42:59;102468.47;;;3.62;100.00
24230;BME280;12362;50.004;8.006;2023-02-14T13:53:30;102451.31;;;3.59;100.00
24230;BME280;12362;50.004;8.006;2023-02-14T13:55:56;102454.56;;;3.47;100.00
24230;BME280;12362;50.004;8.006;2023-02-14T13:58:22;102446.88;;;3.48;100.00
24230;BME280;12362;50.004;8.006;2023-02-14T14:00:51;102449.75;;;3.70;100.00
24230;BME280;12362;50.004;8.006;2023-02-14T14:06:07;102448.72;;;3.57;100.00
24230;BME280;12362;50.004;8.006;2023-02-14T14:13:55;102457.34;;;3.64;100.00
24230;BME280;12362;50.004;8.006;2023-02-14T14:19:36;102453.91;;;3.61;100.00
24230;BME280;12362;50.004;8.006;2023-02-14T14:22:09;102452.97;;;3.56;100.00
24230;BME280;12362;50.004;8.006;2023-02-14T14:24:56;102456.31;;;3.48;100.00
24230;BME280;12362;50.004;8.006;2023-02-14T14:27:49;102448.41;;;3.34;100.00
24230;BME280;12362;50.004;8.006;2023-02-14T14:30:30;102450.25;;;3.44;100.00
24230;BME280;12362;50.004;8.006;2023-02-14T14:33:13;102453.75;;;3.51;100.00
24230;BME280;12362;50.004;8.006;2023-02-14T14:35:54;102443.41;;;3.43;100.00
24230;BME280;12362;50.004;8.006;2023-02-14T14:38:20;102451.00;;;3.36;100.00
24230;BME280;12362;50.004;8.006;2023-02-14T14:40:50;102444.25;;;3.44;100.00
24230;BME280;12362;50.004;8.006;2023-02-14T14:43:25;102442.69;;;3.53;100.00
24230;BME280;12362;50.004;8.006;2023-02-14T14:45:53;102441.69;;;3.45;100.00
24230;BME280;12362;50.004;8.006;2023-02-14T14:48:27;102435.66;;;3.40;100.00
24230;BME280;12362;50.004;8.006;2023-02-14T14:50:54;102431.59;;;3.57;100.00
24230;BME280;12362;50.004;8.006;2023-02-14T14:53:33;102432.38;;;3.52;100.00
24230;BME280;12362;50.004;8.006;2023-02-14T14:56:01;102427.34;;;3.59;100.00
24230;BME280;12362;50.004;8.006;2023-02-14T14:58:36;102427.31;;;3.58;100.00
24230;BME280;12362;50.004;8.006;2023-02-14T15:01:04;102427.41;;;3.65;100.00
24230;BME280;12362;50.004;8.006;2023-02-14T15:03:30;102420.66;;;3.71;100.00
24230;BME280;12362;50.004;8.006;2023-02-14T15:06:18;102420.69;;;3.76;100.00
24230;BME280;12362;50.004;8.006;2023-02-14T15:08:44;102423.03;;;3.57;100.00
24230;BME280;12362;50.004;8.006;2023-02-14T15:11:19;102426.34;;;3.47;100.00
24230;BME280;12362;50.004;8.006;2023-02-14T15:14:05;102428.03;;;3.45;100.00
24230;BME280;12362;50.004;8.006;2023-02-14T15:19:17;102413.75;;;3.66;100.00
24230;BME280;12362;50.004;8.006;2023-02-14T15:21:46;102413.66;;;3.60;100.00
24230;BME280;12362;50.004;8.006;2023-02-14T15:24:14;102409.41;;;3.62;100.00
24230;BME280;12362;50.004;8.006;2023-02-14T15:26:42;102415.38;;;3.59;100.00
24230;BME280;12362;50.004;8.006;2023-02-14T15:29:23;102407.59;;;3.54;100.00
24230;BME280;12362;50.004;8.006;2023-02-14T15:31:50;102412.72;;;3.52;100.00
24230;BME280;12362;50.004;8.006;2023-02-14T15:34:20;102415.31;;;3.55;100.00
24230;BME280;12362;50.004;8.006;2023-02-14T15:36:50;102409.88;;;3.31;100.00
24230;BME280;12362;50.004;8.006;2023-02-14T15:39:32;102409.91;;;3.34;100.00
24230;BME280;12362;50.004;8.006;2023-02-14T15:41:59;102404.81;;;3.37;100.00
24230;BME280;12362;50.004;8.006;2023-02-14T15:44:26;102406.59;;;3.43;100.00
24230;BME280;12362;50.004;8.006;2023-02-14T15:46:58;102408.41;;;3.51;100.00
24230;BME280;12362;50.004;8.006;2023-02-14T15:49:35;102404.81;;;3.39;100.00
24230;BME280;12362;50.004;8.006;2023-02-14T15:52:04;102407.38;;;3.37;100.00